This is the latest recevied weather packets stored in our database for station/object LZ3DJ-10. If no packets are shown the sender has not sent any weather packets the latest 10 day(s).
| Time | Temp. | Humidity | Pressure | Rain* | Wind** | Luminosity | Snow |
|---|---|---|---|---|---|---|---|
| 1787648406 | 27.78° C | 53% | 1012.1 hPa | 0 mm | 0 m/s | - | - |
| 1787647506 | 26.67° C | 56% | 1012.6 hPa | 0 mm | 0.45 m/s, 142° | - | - |
| 1787646606 | 25.56° C | 60% | 1013 hPa | 0 mm | 0 m/s | - | - |
| 1787645706 | 25.56° C | 63% | 1013.2 hPa | 0 mm | 0 m/s | - | - |
| 1787644805 | 24.44° C | 65% | 1013.3 hPa | 0 mm | 0 m/s | - | - |
| 1787643906 | 23.33° C | 68% | 1013.7 hPa | 0 mm | 0 m/s | - | - |
| 1787643006 | 22.78° C | 69% | 1014.1 hPa | 0 mm | 0 m/s | - | - |
| 1787642106 | 22.78° C | 69% | 1014.1 hPa | 0 mm | 0 m/s | - | - |
| 1787641206 | 22.22° C | 71% | 1014.1 hPa | 0 mm | 0 m/s | - | - |
| 1787640306 | 21.11° C | 72% | 1014.3 hPa | 0 mm | 0 m/s | - | - |
| 1787639406 | 21.11° C | 75% | 1014.2 hPa | 0 mm | 0 m/s | - | - |
| 1787638506 | 20.56° C | 78% | 1014.2 hPa | 0 mm | 0 m/s | - | - |
| 1787637607 | 20° C | 79% | 1014.3 hPa | 0 mm | 0 m/s | - | - |
| 1787636705 | 20° C | 80% | 1014.3 hPa | 0 mm | 0 m/s | - | - |
| 1787635805 | 19.44° C | 81% | 1014.3 hPa | 0 mm | 0 m/s | - | - |
| 1787634906 | 19.44° C | 83% | 1014.6 hPa | 0 mm | 0 m/s | - | - |
| 1787634006 | 18.89° C | 84% | 1014.9 hPa | 0 mm | 0 m/s | - | - |
| 1787633106 | 18.89° C | 85% | 1014.7 hPa | 0 mm | 0 m/s | - | - |
| 1787632206 | 18.33° C | 85% | 1014.4 hPa | 0 mm | 0 m/s | - | - |
| 1787631306 | 17.78° C | 87% | 1014.2 hPa | 0 mm | 0 m/s | - | - |
| 1787630405 | 17.22° C | 88% | 1014.3 hPa | 0 mm | 0 m/s | - | - |
| 1787629506 | 17.78° C | 85% | 1014.3 hPa | 0 mm | 0 m/s | - | - |
| 1787628606 | 17.78° C | 86% | 1014.5 hPa | 0 mm | 0 m/s | - | - |
| 1787627705 | 17.22° C | 89% | 1014.7 hPa | 0 mm | 0 m/s | - | - |
| 1787626806 | 17.22° C | 87% | 1014.6 hPa | 0 mm | 0 m/s | - | - |
* Rain latest hour (hover to see other rain measurements)
** Current wind speed in m/s (hover to see current wind gust speed)